sensor_id;sensor_type;location;lat;lon;timestamp;temperature;humidity
10692;DHT22;5396;50.950;6.988;2022-09-09T00:01:54;18.10;99.90
10692;DHT22;5396;50.950;6.988;2022-09-09T00:04:27;18.10;99.90
10692;DHT22;5396;50.950;6.988;2022-09-09T00:07:35;18.10;99.90
10692;DHT22;5396;50.950;6.988;2022-09-09T00:13:01;18.00;99.90
10692;DHT22;5396;50.950;6.988;2022-09-09T00:15:46;17.90;99.90
10692;DHT22;5396;50.950;6.988;2022-09-09T00:21:08;17.80;99.90
10692;DHT22;5396;50.950;6.988;2022-09-09T00:23:39;17.70;99.90
10692;DHT22;5396;50.950;6.988;2022-09-09T00:26:09;17.70;99.90
10692;DHT22;5396;50.950;6.988;2022-09-09T00:28:43;17.70;99.90
10692;DHT22;5396;50.950;6.988;2022-09-09T00:31:18;17.70;99.90
10692;DHT22;5396;50.950;6.988;2022-09-09T00:33:46;17.70;99.90
10692;DHT22;5396;50.950;6.988;2022-09-09T00:36:16;17.60;99.90
10692;DHT22;5396;50.950;6.988;2022-09-09T00:38:49;17.70;99.90
10692;DHT22;5396;50.950;6.988;2022-09-09T00:47:40;17.60;99.90
10692;DHT22;5396;50.950;6.988;2022-09-09T00:49:50;17.60;99.90
10692;DHT22;5396;50.950;6.988;2022-09-09T00:57:52;17.70;99.90
10692;DHT22;5396;50.950;6.988;2022-09-09T01:11:00;17.50;99.90
10692;DHT22;5396;50.950;6.988;2022-09-09T01:13:32;17.50;99.90
10692;DHT22;5396;50.950;6.988;2022-09-09T01:16:00;17.40;99.90
10692;DHT22;5396;50.950;6.988;2022-09-09T01:18:39;17.40;99.90
10692;DHT22;5396;50.950;6.988;2022-09-09T01:21:28;17.40;99.90
10692;DHT22;5396;50.950;6.988;2022-09-09T01:24:15;17.40;99.90
10692;DHT22;5396;50.950;6.988;2022-09-09T01:26:46;17.30;99.90
10692;DHT22;5396;50.950;6.988;2022-09-09T01:29:15;17.30;99.90
10692;DHT22;5396;50.950;6.988;2022-09-09T01:31:53;17.20;99.90
10692;DHT22;5396;50.950;6.988;2022-09-09T01:34:20;17.20;99.90
10692;DHT22;5396;50.950;6.988;2022-09-09T01:37:07;17.10;99.90
10692;DHT22;5396;50.950;6.988;2022-09-09T01:39:35;17.10;99.90
10692;DHT22;5396;50.950;6.988;2022-09-09T01:42:02;17.00;99.90
10692;DHT22;5396;50.950;6.988;2022-09-09T01:44:29;17.00;99.90
10692;DHT22;5396;50.950;6.988;2022-09-09T01:46:55;17.00;99.90
10692;DHT22;5396;50.950;6.988;2022-09-09T01:49:21;17.10;99.90
10692;DHT22;5396;50.950;6.988;2022-09-09T01:51:51;17.00;99.90
10692;DHT22;5396;50.950;6.988;2022-09-09T01:54:23;17.00;99.90
10692;DHT22;5396;50.950;6.988;2022-09-09T01:57:06;17.00;99.90
10692;DHT22;5396;50.950;6.988;2022-09-09T02:08:06;17.10;99.90
10692;DHT22;5396;50.950;6.988;2022-09-09T02:13:12;17.20;99.90
10692;DHT22;5396;50.950;6.988;2022-09-09T02:21:02;17.20;99.90
10692;DHT22;5396;50.950;6.988;2022-09-09T02:23:28;17.20;99.90
10692;DHT22;5396;50.950;6.988;2022-09-09T02:25:57;17.20;99.90
10692;DHT22;5396;50.950;6.988;2022-09-09T02:28:26;17.20;99.90
10692;DHT22;5396;50.950;6.988;2022-09-09T02:30:53;17.20;99.90
10692;DHT22;5396;50.950;6.988;2022-09-09T02:33:23;17.20;99.90
10692;DHT22;5396;50.950;6.988;2022-09-09T02:35:51;17.20;99.90
10692;DHT22;5396;50.950;6.988;2022-09-09T02:38:19;17.20;99.90
10692;DHT22;5396;50.950;6.988;2022-09-09T02:40:46;17.20;99.90
10692;DHT22;5396;50.950;6.988;2022-09-09T02:43:14;17.20;99.90
10692;DHT22;5396;50.950;6.988;2022-09-09T02:45:48;17.20;99.90
10692;DHT22;5396;50.950;6.988;2022-09-09T02:48:31;17.20;99.90
10692;DHT22;5396;50.950;6.988;2022-09-09T02:52:04;17.20;99.90
10692;DHT22;5396;50.950;6.988;2022-09-09T02:56:49;17.20;99.90
10692;DHT22;5396;50.950;6.988;2022-09-09T02:59:16;17.20;99.90
10692;DHT22;5396;50.950;6.988;2022-09-09T03:01:43;17.20;99.90
10692;DHT22;5396;50.950;6.988;2022-09-09T03:04:09;17.20;99.90
10692;DHT22;5396;50.950;6.988;2022-09-09T03:06:35;17.20;99.90
10692;DHT22;5396;50.950;6.988;2022-09-09T03:09:01;17.20;99.90
10692;DHT22;5396;50.950;6.988;2022-09-09T03:11:28;17.20;99.90
10692;DHT22;5396;50.950;6.988;2022-09-09T03:13:54;17.20;99.90
10692;DHT22;5396;50.950;6.988;2022-09-09T03:16:22;17.20;99.90
10692;DHT22;5396;50.950;6.988;2022-09-09T03:18:48;17.20;99.90
10692;DHT22;5396;50.950;6.988;2022-09-09T03:21:13;17.10;99.90
10692;DHT22;5396;50.950;6.988;2022-09-09T03:23:39;17.10;99.90
10692;DHT22;5396;50.950;6.988;2022-09-09T03:26:05;17.10;99.90
10692;DHT22;5396;50.950;6.988;2022-09-09T03:28:31;17.10;99.90
10692;DHT22;5396;50.950;6.988;2022-09-09T03:31:01;17.10;99.90
10692;DHT22;5396;50.950;6.988;2022-09-09T03:33:26;17.20;99.90
10692;DHT22;5396;50.950;6.988;2022-09-09T03:35:53;17.20;99.90
10692;DHT22;5396;50.950;6.988;2022-09-09T03:38:18;17.20;99.90
10692;DHT22;5396;50.950;6.988;2022-09-09T03:40:54;17.20;99.90
10692;DHT22;5396;50.950;6.988;2022-09-09T03:43:21;17.20;99.90
10692;DHT22;5396;50.950;6.988;2022-09-09T03:45:47;17.20;99.90
10692;DHT22;5396;50.950;6.988;2022-09-09T03:48:14;17.20;99.90
10692;DHT22;5396;50.950;6.988;2022-09-09T03:50:47;17.20;99.90
10692;DHT22;5396;50.950;6.988;2022-09-09T03:53:14;17.20;99.90
10692;DHT22;5396;50.950;6.988;2022-09-09T03:55:44;17.20;99.90
10692;DHT22;5396;50.950;6.988;2022-09-09T03:58:11;17.30;99.90
10692;DHT22;5396;50.950;6.988;2022-09-09T04:00:37;17.20;99.90
10692;DHT22;5396;50.950;6.988;2022-09-09T04:03:10;17.20;99.90
10692;DHT22;5396;50.950;6.988;2022-09-09T04:05:36;17.20;99.90
10692;DHT22;5396;50.950;6.988;2022-09-09T04:08:06;17.20;99.90
10692;DHT22;5396;50.950;6.988;2022-09-09T04:10:31;17.20;99.90
10692;DHT22;5396;50.950;6.988;2022-09-09T04:12:57;17.20;99.90
10692;DHT22;5396;50.950;6.988;2022-09-09T04:15:23;17.20;99.90
10692;DHT22;5396;50.950;6.988;2022-09-09T04:17:48;17.20;99.90
10692;DHT22;5396;50.950;6.988;2022-09-09T04:20:15;17.20;99.90
10692;DHT22;5396;50.950;6.988;2022-09-09T04:22:40;17.20;99.90
10692;DHT22;5396;50.950;6.988;2022-09-09T04:25:06;17.20;99.90
10692;DHT22;5396;50.950;6.988;2022-09-09T04:27:32;17.20;99.90
10692;DHT22;5396;50.950;6.988;2022-09-09T04:29:58;17.20;99.90
10692;DHT22;5396;50.950;6.988;2022-09-09T04:32:24;17.20;99.90
10692;DHT22;5396;50.950;6.988;2022-09-09T04:34:52;17.20;99.90
10692;DHT22;5396;50.950;6.988;2022-09-09T04:37:18;17.20;99.90
10692;DHT22;5396;50.950;6.988;2022-09-09T04:39:44;17.20;99.90
10692;DHT22;5396;50.950;6.988;2022-09-09T04:42:11;17.20;99.90
10692;DHT22;5396;50.950;6.988;2022-09-09T04:44:38;17.20;99.90
10692;DHT22;5396;50.950;6.988;2022-09-09T04:47:04;17.30;99.90
10692;DHT22;5396;50.950;6.988;2022-09-09T04:49:30;17.30;99.90
10692;DHT22;5396;50.950;6.988;2022-09-09T04:51:56;17.30;99.90
10692;DHT22;5396;50.950;6.988;2022-09-09T04:54:22;17.30;99.90
10692;DHT22;5396;50.950;6.988;2022-09-09T04:56:50;17.30;99.90
10692;DHT22;5396;50.950;6.988;2022-09-09T04:59:15;17.30;99.90
10692;DHT22;5396;50.950;6.988;2022-09-09T05:01:41;17.30;99.90
10692;DHT22;5396;50.950;6.988;2022-09-09T05:04:07;17.20;99.90
10692;DHT22;5396;50.950;6.988;2022-09-09T05:06:34;17.30;99.90
10692;DHT22;5396;50.950;6.988;2022-09-09T05:09:01;17.20;99.90
10692;DHT22;5396;50.950;6.988;2022-09-09T05:11:29;17.30;99.90
10692;DHT22;5396;50.950;6.988;2022-09-09T05:13:55;17.20;99.90
10692;DHT22;5396;50.950;6.988;2022-09-09T05:16:22;17.20;99.90
10692;DHT22;5396;50.950;6.988;2022-09-09T05:18:49;17.20;99.90
10692;DHT22;5396;50.950;6.988;2022-09-09T05:21:17;17.20;99.90
10692;DHT22;5396;50.950;6.988;2022-09-09T05:23:45;17.20;99.90
10692;DHT22;5396;50.950;6.988;2022-09-09T05:26:16;17.10;99.90
10692;DHT22;5396;50.950;6.988;2022-09-09T05:28:42;17.10;99.90
10692;DHT22;5396;50.950;6.988;2022-09-09T05:31:09;16.90;99.90
10692;DHT22;5396;50.950;6.988;2022-09-09T05:33:38;16.80;99.90
10692;DHT22;5396;50.950;6.988;2022-09-09T05:36:08;16.60;99.90
10692;DHT22;5396;50.950;6.988;2022-09-09T05:38:34;16.50;99.90
10692;DHT22;5396;50.950;6.988;2022-09-09T05:41:01;16.50;99.90
10692;DHT22;5396;50.950;6.988;2022-09-09T05:43:28;16.40;99.90
10692;DHT22;5396;50.950;6.988;2022-09-09T05:46:21;16.40;99.90
10692;DHT22;5396;50.950;6.988;2022-09-09T05:48:47;16.40;99.90
10692;DHT22;5396;50.950;6.988;2022-09-09T05:51:17;16.40;99.90
10692;DHT22;5396;50.950;6.988;2022-09-09T05:53:43;16.50;99.90
10692;DHT22;5396;50.950;6.988;2022-09-09T05:56:14;16.50;99.90
10692;DHT22;5396;50.950;6.988;2022-09-09T05:58:40;16.50;99.90
10692;DHT22;5396;50.950;6.988;2022-09-09T06:01:29;16.60;99.90
10692;DHT22;5396;50.950;6.988;2022-09-09T06:03:55;16.60;99.90
10692;DHT22;5396;50.950;6.988;2022-09-09T06:06:26;16.70;99.90
10692;DHT22;5396;50.950;6.988;2022-09-09T06:08:54;16.70;99.90
10692;DHT22;5396;50.950;6.988;2022-09-09T06:11:23;16.80;99.90
10692;DHT22;5396;50.950;6.988;2022-09-09T06:13:49;16.80;99.90
10692;DHT22;5396;50.950;6.988;2022-09-09T06:16:21;16.90;99.90
10692;DHT22;5396;50.950;6.988;2022-09-09T06:18:50;16.90;99.90
10692;DHT22;5396;50.950;6.988;2022-09-09T06:23:41;16.90;99.90
10692;DHT22;5396;50.950;6.988;2022-09-09T06:28:54;16.90;99.90
10692;DHT22;5396;50.950;6.988;2022-09-09T06:31:22;16.80;99.90
10692;DHT22;5396;50.950;6.988;2022-09-09T06:33:49;16.80;99.90
10692;DHT22;5396;50.950;6.988;2022-09-09T06:36:20;16.80;99.90
10692;DHT22;5396;50.950;6.988;2022-09-09T06:38:46;16.80;99.90
10692;DHT22;5396;50.950;6.988;2022-09-09T06:41:13;16.80;99.90
10692;DHT22;5396;50.950;6.988;2022-09-09T06:43:39;16.90;99.90
10692;DHT22;5396;50.950;6.988;2022-09-09T06:48:33;16.90;99.90
10692;DHT22;5396;50.950;6.988;2022-09-09T06:51:08;16.90;99.90
10692;DHT22;5396;50.950;6.988;2022-09-09T06:53:35;16.90;99.90
10692;DHT22;5396;50.950;6.988;2022-09-09T06:56:28;16.90;99.90
10692;DHT22;5396;50.950;6.988;2022-09-09T06:58:56;17.00;99.90
10692;DHT22;5396;50.950;6.988;2022-09-09T07:01:27;17.10;99.90
10692;DHT22;5396;50.950;6.988;2022-09-09T07:03:55;17.20;99.90
10692;DHT22;5396;50.950;6.988;2022-09-09T07:06:22;17.30;99.90
10692;DHT22;5396;50.950;6.988;2022-09-09T07:08:53;17.40;99.90
10692;DHT22;5396;50.950;6.988;2022-09-09T07:11:21;17.40;99.90
10692;DHT22;5396;50.950;6.988;2022-09-09T07:13:48;17.50;99.90
10692;DHT22;5396;50.950;6.988;2022-09-09T07:16:19;17.50;99.90
10692;DHT22;5396;50.950;6.988;2022-09-09T07:18:45;17.60;99.90
10692;DHT22;5396;50.950;6.988;2022-09-09T07:21:13;17.60;99.90
10692;DHT22;5396;50.950;6.988;2022-09-09T07:23:39;17.70;99.90
10692;DHT22;5396;50.950;6.988;2022-09-09T07:26:16;17.70;99.90
10692;DHT22;5396;50.950;6.988;2022-09-09T07:28:44;17.80;99.90
10692;DHT22;5396;50.950;6.988;2022-09-09T07:31:18;17.90;99.90
10692;DHT22;5396;50.950;6.988;2022-09-09T07:33:46;18.00;99.90
10692;DHT22;5396;50.950;6.988;2022-09-09T07:36:14;18.10;99.90
10692;DHT22;5396;50.950;6.988;2022-09-09T07:38:44;18.20;99.90
10692;DHT22;5396;50.950;6.988;2022-09-09T07:41:13;18.20;99.90
10692;DHT22;5396;50.950;6.988;2022-09-09T07:43:40;18.30;99.90
10692;DHT22;5396;50.950;6.988;2022-09-09T07:46:06;18.30;99.90
10692;DHT22;5396;50.950;6.988;2022-09-09T07:48:32;18.40;99.90
10692;DHT22;5396;50.950;6.988;2022-09-09T07:51:07;18.40;99.90
10692;DHT22;5396;50.950;6.988;2022-09-09T07:53:33;18.40;99.90
10692;DHT22;5396;50.950;6.988;2022-09-09T07:56:04;18.50;99.90
10692;DHT22;5396;50.950;6.988;2022-09-09T07:58:30;18.60;99.90
10692;DHT22;5396;50.950;6.988;2022-09-09T08:00:56;18.80;99.90
10692;DHT22;5396;50.950;6.988;2022-09-09T08:03:22;19.00;99.90
10692;DHT22;5396;50.950;6.988;2022-09-09T08:05:49;19.00;99.90
10692;DHT22;5396;50.950;6.988;2022-09-09T08:08:14;19.00;99.90
10692;DHT22;5396;50.950;6.988;2022-09-09T08:10:41;19.00;99.90
10692;DHT22;5396;50.950;6.988;2022-09-09T08:13:08;19.00;99.90
10692;DHT22;5396;50.950;6.988;2022-09-09T08:15:34;19.00;99.90
10692;DHT22;5396;50.950;6.988;2022-09-09T08:17:59;19.10;99.90
10692;DHT22;5396;50.950;6.988;2022-09-09T08:20:25;19.10;99.90
10692;DHT22;5396;50.950;6.988;2022-09-09T08:22:51;19.10;99.90
10692;DHT22;5396;50.950;6.988;2022-09-09T08:25:16;19.10;99.90
10692;DHT22;5396;50.950;6.988;2022-09-09T08:27:42;19.10;99.90
10692;DHT22;5396;50.950;6.988;2022-09-09T08:30:08;19.10;99.90
10692;DHT22;5396;50.950;6.988;2022-09-09T08:32:34;19.20;99.90
10692;DHT22;5396;50.950;6.988;2022-09-09T08:35:01;19.30;99.90
10692;DHT22;5396;50.950;6.988;2022-09-09T08:37:27;19.40;99.90
10692;DHT22;5396;50.950;6.988;2022-09-09T08:39:52;19.50;99.90
10692;DHT22;5396;50.950;6.988;2022-09-09T08:42:30;19.60;99.90
10692;DHT22;5396;50.950;6.988;2022-09-09T08:47:58;19.80;99.90
10692;DHT22;5396;50.950;6.988;2022-09-09T08:50:30;19.80;99.90
10692;DHT22;5396;50.950;6.988;2022-09-09T08:53:17;19.90;99.90
10692;DHT22;5396;50.950;6.988;2022-09-09T08:55:51;19.90;99.90
10692;DHT22;5396;50.950;6.988;2022-09-09T08:58:32;19.90;99.90
10692;DHT22;5396;50.950;6.988;2022-09-09T09:07:08;19.70;99.90
10692;DHT22;5396;50.950;6.988;2022-09-09T09:12:26;20.10;99.90
10692;DHT22;5396;50.950;6.988;2022-09-09T09:14:54;20.20;99.90
10692;DHT22;5396;50.950;6.988;2022-09-09T09:17:26;20.30;99.90
10692;DHT22;5396;50.950;6.988;2022-09-09T09:19:52;20.40;99.90
10692;DHT22;5396;50.950;6.988;2022-09-09T09:22:58;20.60;99.90
10692;DHT22;5396;50.950;6.988;2022-09-09T09:25:44;20.60;99.90
10692;DHT22;5396;50.950;6.988;2022-09-09T09:28:17;20.50;99.90
10692;DHT22;5396;50.950;6.988;2022-09-09T09:30:52;20.40;99.90
10692;DHT22;5396;50.950;6.988;2022-09-09T09:36:11;20.10;99.90
10692;DHT22;5396;50.950;6.988;2022-09-09T09:38:38;20.00;99.90
10692;DHT22;5396;50.950;6.988;2022-09-09T09:41:05;20.00;99.90
10692;DHT22;5396;50.950;6.988;2022-09-09T09:43:35;19.90;99.90
10692;DHT22;5396;50.950;6.988;2022-09-09T09:46:04;20.00;99.90
10692;DHT22;5396;50.950;6.988;2022-09-09T09:48:30;20.10;99.90
10692;DHT22;5396;50.950;6.988;2022-09-09T09:51:09;20.10;99.90
10692;DHT22;5396;50.950;6.988;2022-09-09T09:53:38;20.20;99.90
10692;DHT22;5396;50.950;6.988;2022-09-09T09:56:06;20.20;99.90
10692;DHT22;5396;50.950;6.988;2022-09-09T10:01:25;20.00;99.90
10692;DHT22;5396;50.950;6.988;2022-09-09T10:03:54;20.00;99.90
10692;DHT22;5396;50.950;6.988;2022-09-09T10:06:34;20.10;99.90
10692;DHT22;5396;50.950;6.988;2022-09-09T10:09:02;20.20;99.90
10692;DHT22;5396;50.950;6.988;2022-09-09T10:11:46;20.30;99.90
10692;DHT22;5396;50.950;6.988;2022-09-09T10:14:24;20.30;99.90
10692;DHT22;5396;50.950;6.988;2022-09-09T10:19:32;20.30;99.90
10692;DHT22;5396;50.950;6.988;2022-09-09T10:22:20;20.30;99.90
10692;DHT22;5396;50.950;6.988;2022-09-09T10:30:19;20.40;99.90
10692;DHT22;5396;50.950;6.988;2022-09-09T10:33:23;20.30;99.90
10692;DHT22;5396;50.950;6.988;2022-09-09T10:36:12;20.20;99.90
10692;DHT22;5396;50.950;6.988;2022-09-09T10:38:40;20.20;99.90
10692;DHT22;5396;50.950;6.988;2022-09-09T10:41:21;20.30;99.90
10692;DHT22;5396;50.950;6.988;2022-09-09T10:47:11;20.50;99.90
10692;DHT22;5396;50.950;6.988;2022-09-09T10:55:27;21.00;99.90
10692;DHT22;5396;50.950;6.988;2022-09-09T10:57:58;20.90;99.90
10692;DHT22;5396;50.950;6.988;2022-09-09T11:00:45;20.90;99.90
10692;DHT22;5396;50.950;6.988;2022-09-09T11:03:19;20.90;99.90
10692;DHT22;5396;50.950;6.988;2022-09-09T11:06:05;21.00;99.90
10692;DHT22;5396;50.950;6.988;2022-09-09T11:08:34;21.00;99.90
10692;DHT22;5396;50.950;6.988;2022-09-09T11:11:42;20.90;99.90
10692;DHT22;5396;50.950;6.988;2022-09-09T11:14:15;20.80;99.90
10692;DHT22;5396;50.950;6.988;2022-09-09T11:16:51;21.00;99.90
10692;DHT22;5396;50.950;6.988;2022-09-09T11:19:41;21.20;99.90
10692;DHT22;5396;50.950;6.988;2022-09-09T11:28:02;21.50;99.90
10692;DHT22;5396;50.950;6.988;2022-09-09T11:38:47;20.90;99.90
10692;DHT22;5396;50.950;6.988;2022-09-09T11:41:15;20.90;99.90
10692;DHT22;5396;50.950;6.988;2022-09-09T11:43:46;21.00;99.90
10692;DHT22;5396;50.950;6.988;2022-09-09T11:46:14;20.90;99.90
10692;DHT22;5396;50.950;6.988;2022-09-09T11:48:43;21.00;99.90
10692;DHT22;5396;50.950;6.988;2022-09-09T11:51:13;21.10;99.90
10692;DHT22;5396;50.950;6.988;2022-09-09T11:53:54;21.20;99.90
10692;DHT22;5396;50.950;6.988;2022-09-09T11:56:45;21.20;99.90
10692;DHT22;5396;50.950;6.988;2022-09-09T12:01:50;21.40;99.90
10692;DHT22;5396;50.950;6.988;2022-09-09T12:04:46;21.40;99.90
10692;DHT22;5396;50.950;6.988;2022-09-09T12:07:38;21.30;99.90
10692;DHT22;5396;50.950;6.988;2022-09-09T12:12:34;21.10;99.90
10692;DHT22;5396;50.950;6.988;2022-09-09T12:15:24;21.00;99.90
10692;DHT22;5396;50.950;6.988;2022-09-09T12:17:53;20.90;99.90
10692;DHT22;5396;50.950;6.988;2022-09-09T12:20:22;20.90;99.90
10692;DHT22;5396;50.950;6.988;2022-09-09T12:22:57;20.80;99.90
10692;DHT22;5396;50.950;6.988;2022-09-09T12:28:19;21.20;99.90
10692;DHT22;5396;50.950;6.988;2022-09-09T12:31:10;21.20;99.90
10692;DHT22;5396;50.950;6.988;2022-09-09T12:33:44;21.30;99.90
10692;DHT22;5396;50.950;6.988;2022-09-09T12:36:29;21.40;99.90
10692;DHT22;5396;50.950;6.988;2022-09-09T12:38:59;21.40;99.90
10692;DHT22;5396;50.950;6.988;2022-09-09T12:41:35;21.40;99.90
10692;DHT22;5396;50.950;6.988;2022-09-09T12:44:06;21.30;99.90
10692;DHT22;5396;50.950;6.988;2022-09-09T12:46:45;21.30;99.90
10692;DHT22;5396;50.950;6.988;2022-09-09T12:49:34;21.10;99.90
10692;DHT22;5396;50.950;6.988;2022-09-09T12:52:37;21.00;99.90
10692;DHT22;5396;50.950;6.988;2022-09-09T12:55:05;21.00;99.90
10692;DHT22;5396;50.950;6.988;2022-09-09T12:57:35;21.00;99.90
10692;DHT22;5396;50.950;6.988;2022-09-09T13:00:16;21.10;99.90
10692;DHT22;5396;50.950;6.988;2022-09-09T13:02:47;21.20;99.90
10692;DHT22;5396;50.950;6.988;2022-09-09T13:05:20;21.50;99.90
10692;DHT22;5396;50.950;6.988;2022-09-09T13:07:46;21.90;99.90
10692;DHT22;5396;50.950;6.988;2022-09-09T13:10:14;22.10;99.90
10692;DHT22;5396;50.950;6.988;2022-09-09T13:12:40;22.10;99.90
10692;DHT22;5396;50.950;6.988;2022-09-09T13:15:19;21.90;99.90
10692;DHT22;5396;50.950;6.988;2022-09-09T13:17:51;21.70;99.90
10692;DHT22;5396;50.950;6.988;2022-09-09T13:20:19;21.50;99.90
10692;DHT22;5396;50.950;6.988;2022-09-09T13:22:46;21.70;99.90
10692;DHT22;5396;50.950;6.988;2022-09-09T13:27:40;21.80;99.90
10692;DHT22;5396;50.950;6.988;2022-09-09T13:30:39;22.30;99.90
10692;DHT22;5396;50.950;6.988;2022-09-09T13:35:44;22.10;99.90
10692;DHT22;5396;50.950;6.988;2022-09-09T13:38:14;22.00;99.90
10692;DHT22;5396;50.950;6.988;2022-09-09T13:40:40;22.00;99.90
10692;DHT22;5396;50.950;6.988;2022-09-09T13:43:15;22.50;99.90
10692;DHT22;5396;50.950;6.988;2022-09-09T13:45:59;22.70;99.90
10692;DHT22;5396;50.950;6.988;2022-09-09T13:48:25;22.30;99.90
10692;DHT22;5396;50.950;6.988;2022-09-09T13:51:04;22.00;99.90
10692;DHT22;5396;50.950;6.988;2022-09-09T13:53:30;23.30;99.90
10692;DHT22;5396;50.950;6.988;2022-09-09T13:55:57;24.90;99.90
10692;DHT22;5396;50.950;6.988;2022-09-09T13:58:23;25.60;99.90
10692;DHT22;5396;50.950;6.988;2022-09-09T14:00:54;26.40;99.90
10692;DHT22;5396;50.950;6.988;2022-09-09T14:03:20;26.00;99.90
10692;DHT22;5396;50.950;6.988;2022-09-09T14:05:46;26.30;99.90
10692;DHT22;5396;50.950;6.988;2022-09-09T14:08:25;26.00;99.90
10692;DHT22;5396;50.950;6.988;2022-09-09T14:10:51;24.90;99.90
10692;DHT22;5396;50.950;6.988;2022-09-09T14:13:17;23.60;99.90
10692;DHT22;5396;50.950;6.988;2022-09-09T14:15:43;22.80;99.90
10692;DHT22;5396;50.950;6.988;2022-09-09T14:18:12;22.20;99.90
10692;DHT22;5396;50.950;6.988;2022-09-09T14:20:38;21.70;99.90
10692;DHT22;5396;50.950;6.988;2022-09-09T14:23:04;21.50;99.90
10692;DHT22;5396;50.950;6.988;2022-09-09T14:25:30;21.30;99.90
10692;DHT22;5396;50.950;6.988;2022-09-09T14:27:56;21.10;99.90
10692;DHT22;5396;50.950;6.988;2022-09-09T14:30:22;21.10;99.90
10692;DHT22;5396;50.950;6.988;2022-09-09T14:32:48;21.00;99.90
10692;DHT22;5396;50.950;6.988;2022-09-09T14:35:13;20.90;99.90
10692;DHT22;5396;50.950;6.988;2022-09-09T14:37:39;20.80;99.90
10692;DHT22;5396;50.950;6.988;2022-09-09T14:40:05;20.70;99.90
10692;DHT22;5396;50.950;6.988;2022-09-09T14:42:31;20.60;99.90
10692;DHT22;5396;50.950;6.988;2022-09-09T14:44:57;20.30;99.90
10692;DHT22;5396;50.950;6.988;2022-09-09T14:47:22;19.40;99.90
10692;DHT22;5396;50.950;6.988;2022-09-09T14:49:48;18.20;99.90
10692;DHT22;5396;50.950;6.988;2022-09-09T14:52:15;17.50;99.90
10692;DHT22;5396;50.950;6.988;2022-09-09T14:54:41;17.00;99.90
10692;DHT22;5396;50.950;6.988;2022-09-09T14:57:07;16.70;99.90
10692;DHT22;5396;50.950;6.988;2022-09-09T14:59:32;16.60;99.90
10692;DHT22;5396;50.950;6.988;2022-09-09T15:01:59;16.60;99.90
10692;DHT22;5396;50.950;6.988;2022-09-09T15:04:29;16.70;99.90
10692;DHT22;5396;50.950;6.988;2022-09-09T15:06:54;16.80;99.90
10692;DHT22;5396;50.950;6.988;2022-09-09T15:09:20;17.00;99.90
10692;DHT22;5396;50.950;6.988;2022-09-09T15:11:46;17.30;99.90
10692;DHT22;5396;50.950;6.988;2022-09-09T15:14:11;17.50;99.90
10692;DHT22;5396;50.950;6.988;2022-09-09T15:16:38;17.80;99.90
10692;DHT22;5396;50.950;6.988;2022-09-09T15:19:04;18.00;99.90
10692;DHT22;5396;50.950;6.988;2022-09-09T15:21:32;18.10;99.90
10692;DHT22;5396;50.950;6.988;2022-09-09T15:23:58;18.20;99.90
10692;DHT22;5396;50.950;6.988;2022-09-09T15:26:25;18.30;99.90
10692;DHT22;5396;50.950;6.988;2022-09-09T15:28:51;18.40;99.90
10692;DHT22;5396;50.950;6.988;2022-09-09T15:31:21;18.50;99.90
10692;DHT22;5396;50.950;6.988;2022-09-09T15:36:19;18.50;99.90
10692;DHT22;5396;50.950;6.988;2022-09-09T15:38:46;18.50;99.90
10692;DHT22;5396;50.950;6.988;2022-09-09T15:41:12;18.40;99.90
10692;DHT22;5396;50.950;6.988;2022-09-09T15:43:42;18.30;99.90
10692;DHT22;5396;50.950;6.988;2022-09-09T15:46:35;18.30;99.90
10692;DHT22;5396;50.950;6.988;2022-09-09T15:49:15;18.20;99.90
10692;DHT22;5396;50.950;6.988;2022-09-09T15:51:45;18.30;99.90
10692;DHT22;5396;50.950;6.988;2022-09-09T15:54:14;18.30;99.90
10692;DHT22;5396;50.950;6.988;2022-09-09T15:56:42;18.40;99.90
10692;DHT22;5396;50.950;6.988;2022-09-09T15:59:08;18.30;99.90
10692;DHT22;5396;50.950;6.988;2022-09-09T16:01:34;18.10;99.90
10692;DHT22;5396;50.950;6.988;2022-09-09T16:04:01;18.00;99.90
10692;DHT22;5396;50.950;6.988;2022-09-09T16:06:28;17.70;99.90
10692;DHT22;5396;50.950;6.988;2022-09-09T16:08:55;17.60;99.90
10692;DHT22;5396;50.950;6.988;2022-09-09T16:11:27;17.40;99.90
10692;DHT22;5396;50.950;6.988;2022-09-09T16:13:54;17.30;99.90
10692;DHT22;5396;50.950;6.988;2022-09-09T16:16:22;17.20;99.90
10692;DHT22;5396;50.950;6.988;2022-09-09T16:18:50;17.20;99.90
10692;DHT22;5396;50.950;6.988;2022-09-09T16:21:25;17.10;99.90
10692;DHT22;5396;50.950;6.988;2022-09-09T16:23:52;17.10;99.90
10692;DHT22;5396;50.950;6.988;2022-09-09T16:26:21;17.10;99.90
10692;DHT22;5396;50.950;6.988;2022-09-09T16:28:47;17.10;99.90
10692;DHT22;5396;50.950;6.988;2022-09-09T16:31:16;17.00;99.90
10692;DHT22;5396;50.950;6.988;2022-09-09T16:33:43;17.10;99.90
10692;DHT22;5396;50.950;6.988;2022-09-09T16:36:11;17.20;99.90
10692;DHT22;5396;50.950;6.988;2022-09-09T16:38:37;17.20;99.90
10692;DHT22;5396;50.950;6.988;2022-09-09T16:41:04;17.30;99.90
10692;DHT22;5396;50.950;6.988;2022-09-09T16:43:34;17.40;99.90
10692;DHT22;5396;50.950;6.988;2022-09-09T16:46:01;17.40;99.90
10692;DHT22;5396;50.950;6.988;2022-09-09T16:48:31;17.50;99.90
10692;DHT22;5396;50.950;6.988;2022-09-09T16:51:06;17.50;99.90
10692;DHT22;5396;50.950;6.988;2022-09-09T16:53:35;17.60;99.90
10692;DHT22;5396;50.950;6.988;2022-09-09T16:56:08;17.70;99.90
10692;DHT22;5396;50.950;6.988;2022-09-09T16:58:34;17.70;99.90
10692;DHT22;5396;50.950;6.988;2022-09-09T17:01:00;17.70;99.90
10692;DHT22;5396;50.950;6.988;2022-09-09T17:03:30;17.60;99.90
10692;DHT22;5396;50.950;6.988;2022-09-09T17:05:57;17.60;99.90
10692;DHT22;5396;50.950;6.988;2022-09-09T17:08:23;17.70;99.90
10692;DHT22;5396;50.950;6.988;2022-09-09T17:10:49;17.60;99.90
10692;DHT22;5396;50.950;6.988;2022-09-09T17:13:15;17.70;99.90
10692;DHT22;5396;50.950;6.988;2022-09-09T17:15:43;17.70;99.90
10692;DHT22;5396;50.950;6.988;2022-09-09T17:18:10;17.70;99.90
10692;DHT22;5396;50.950;6.988;2022-09-09T17:20:40;17.60;99.90
10692;DHT22;5396;50.950;6.988;2022-09-09T17:23:07;17.50;99.90
10692;DHT22;5396;50.950;6.988;2022-09-09T17:25:33;17.50;99.90
10692;DHT22;5396;50.950;6.988;2022-09-09T17:28:00;17.40;99.90
10692;DHT22;5396;50.950;6.988;2022-09-09T17:30:27;17.40;99.90
10692;DHT22;5396;50.950;6.988;2022-09-09T17:32:53;17.40;99.90
10692;DHT22;5396;50.950;6.988;2022-09-09T17:35:18;17.40;99.90
10692;DHT22;5396;50.950;6.988;2022-09-09T17:37:44;17.30;99.90
10692;DHT22;5396;50.950;6.988;2022-09-09T17:40:10;17.30;99.90
10692;DHT22;5396;50.950;6.988;2022-09-09T17:42:36;17.30;99.90
10692;DHT22;5396;50.950;6.988;2022-09-09T17:45:02;17.30;99.90
10692;DHT22;5396;50.950;6.988;2022-09-09T17:47:28;17.30;99.90
10692;DHT22;5396;50.950;6.988;2022-09-09T17:49:56;17.30;99.90
10692;DHT22;5396;50.950;6.988;2022-09-09T17:52:21;17.30;99.90
10692;DHT22;5396;50.950;6.988;2022-09-09T17:54:48;17.30;99.90
10692;DHT22;5396;50.950;6.988;2022-09-09T17:57:15;17.30;99.90
10692;DHT22;5396;50.950;6.988;2022-09-09T17:59:42;17.30;99.90
10692;DHT22;5396;50.950;6.988;2022-09-09T18:02:10;17.30;99.90
10692;DHT22;5396;50.950;6.988;2022-09-09T18:04:36;17.30;99.90